createdAt,value
2019-02-21T00:00:39.824Z,11.70
2019-02-21T00:05:42.506Z,13.70
2019-02-21T00:10:45.215Z,13.53
2019-02-21T00:15:47.968Z,12.63
2019-02-21T00:20:50.644Z,13.33
2019-02-21T00:25:55.731Z,13.53
2019-02-21T00:30:58.004Z,12.03
2019-02-21T00:36:00.710Z,13.03
2019-02-21T00:41:04.314Z,14.33
2019-02-21T00:46:07.007Z,14.03
2019-02-21T00:51:09.718Z,14.57
2019-02-21T00:56:12.394Z,14.13
2019-02-21T01:01:15.083Z,15.07
2019-02-21T01:06:17.775Z,14.80
2019-02-21T01:11:20.657Z,14.70
2019-02-21T01:16:23.338Z,13.80
2019-02-21T01:21:26.017Z,14.37
2019-02-21T01:26:28.739Z,15.13
2019-02-21T01:31:31.439Z,15.40
2019-02-21T01:36:34.123Z,14.90
2019-02-21T01:41:36.811Z,14.60
2019-02-21T01:46:39.536Z,14.47
2019-02-21T01:51:42.214Z,14.03
2019-02-21T01:56:44.898Z,14.83
2019-02-21T02:01:47.585Z,14.43
2019-02-21T02:06:50.267Z,13.70
2019-02-21T02:11:53.008Z,13.30
2019-02-21T02:16:55.671Z,15.07
2019-02-21T02:21:58.362Z,12.87
2019-02-21T02:27:01.119Z,14.27
2019-02-21T02:32:03.888Z,14.20
2019-02-21T02:37:06.588Z,13.17
2019-02-21T02:42:09.256Z,12.80
2019-02-21T02:47:11.930Z,12.57
2019-02-21T02:52:14.650Z,12.40
2019-02-21T02:57:17.337Z,12.27
2019-02-21T03:02:20.002Z,12.30
2019-02-21T03:07:22.677Z,13.77
2019-02-21T03:12:25.359Z,14.03
2019-02-21T03:17:28.063Z,13.50
2019-02-21T03:22:30.751Z,13.33
2019-02-21T03:27:33.470Z,12.63
2019-02-21T03:32:36.179Z,12.23
2019-02-21T03:37:38.913Z,12.37
2019-02-21T03:42:41.733Z,12.10
2019-02-21T03:47:44.413Z,13.30
2019-02-21T03:52:47.089Z,14.53
2019-02-21T03:57:49.768Z,13.07
2019-02-21T04:02:52.474Z,12.63
2019-02-21T04:07:55.176Z,13.00
2019-02-21T04:12:57.853Z,13.53
2019-02-21T04:18:00.573Z,14.23
2019-02-21T04:23:03.282Z,12.80
2019-02-21T04:28:05.971Z,13.90
2019-02-21T04:33:08.655Z,13.30
2019-02-21T04:38:11.350Z,13.60
2019-02-21T04:43:14.092Z,14.17
2019-02-21T04:48:16.774Z,14.73
2019-02-21T04:53:19.453Z,14.20
2019-02-21T04:58:22.561Z,14.00
2019-02-21T05:03:25.229Z,15.10
2019-02-21T05:08:27.926Z,14.23
2019-02-21T05:13:30.628Z,13.60
2019-02-21T05:18:33.388Z,13.63
2019-02-21T05:23:36.838Z,14.03
2019-02-21T05:28:41.296Z,12.27
2019-02-21T05:34:09.684Z,12.43
2019-02-21T05:39:34.854Z,12.23
2019-02-21T05:44:43.085Z,13.83
2019-02-21T05:49:54.274Z,14.07
2019-02-21T05:55:04.857Z,12.77
2019-02-21T06:00:42.601Z,13.37
2019-02-21T06:06:04.951Z,14.03
2019-02-21T06:11:25.946Z,14.70
2019-02-21T06:16:46.600Z,14.00
2019-02-21T06:22:10.138Z,14.33
2019-02-21T06:27:13.069Z,14.03
2019-02-21T06:32:15.730Z,13.93
2019-02-21T06:37:18.407Z,14.10
2019-02-21T06:42:21.112Z,14.90
2019-02-21T06:47:23.786Z,15.27
2019-02-21T06:52:26.464Z,15.40
2019-02-21T06:57:29.153Z,15.20
2019-02-21T07:02:31.817Z,15.73
2019-02-21T07:07:34.494Z,15.10
2019-02-21T07:12:37.163Z,16.03
2019-02-21T07:17:48.907Z,15.40
2019-02-21T07:22:44.405Z,15.13
2019-02-21T07:27:47.092Z,15.87
2019-02-21T07:32:49.758Z,15.97
2019-02-21T07:37:52.425Z,16.10
2019-02-21T07:42:55.083Z,16.20
2019-02-21T07:47:57.744Z,16.57
2019-02-21T07:53:02.706Z,16.00
2019-02-21T07:58:05.008Z,16.70
2019-02-21T08:03:09.181Z,17.07
2019-02-21T08:08:12.082Z,17.93
2019-02-21T08:13:14.751Z,17.70
2019-02-21T08:18:17.443Z,17.40
2019-02-21T08:23:20.147Z,17.77
2019-02-21T08:28:22.840Z,17.70
2019-02-21T08:33:58.357Z,18.10
2019-02-21T08:38:55.357Z,18.37
2019-02-21T08:43:58.028Z,17.83
2019-02-21T08:49:00.699Z,16.90
2019-02-21T08:54:05.545Z,19.20
2019-02-21T08:59:07.959Z,17.97
2019-02-21T09:04:26.417Z,17.50
2019-02-21T09:09:15.198Z,16.40
2019-02-21T09:14:17.883Z,15.87
2019-02-21T09:19:20.581Z,18.47
2019-02-21T09:24:37.499Z,15.40
2019-02-21T09:29:27.853Z,16.00
2019-02-21T09:34:30.527Z,16.53
2019-02-21T09:39:33.228Z,18.53
2019-02-21T09:44:36.019Z,16.70
2019-02-21T09:49:38.699Z,16.43
2019-02-21T09:54:41.389Z,15.93
2019-02-21T09:59:44.071Z,15.90
2019-02-21T10:04:46.748Z,16.77
2019-02-21T10:09:49.419Z,15.77
2019-02-21T10:14:52.111Z,15.80
2019-02-21T10:19:54.770Z,15.53
2019-02-21T10:24:57.466Z,15.83
2019-02-21T10:30:00.239Z,16.43
2019-02-21T10:35:03.555Z,15.70
2019-02-21T10:40:08.516Z,16.50
2019-02-21T10:45:13.892Z,17.00
2019-02-21T10:50:17.853Z,16.57
2019-02-21T10:55:24.157Z,16.67
2019-02-21T11:00:31.646Z,15.50
2019-02-21T11:05:44.263Z,16.63
2019-02-21T11:10:53.579Z,17.50
2019-02-21T11:15:56.327Z,18.40
2019-02-21T11:21:02.147Z,17.67
2019-02-21T11:26:06.232Z,15.90
2019-02-21T11:31:08.957Z,16.93
2019-02-21T11:36:11.639Z,16.33
2019-02-21T11:41:14.311Z,16.63
2019-02-21T11:46:16.981Z,17.43
2019-02-21T11:51:19.660Z,17.67
2019-02-21T11:56:22.334Z,15.87
2019-02-21T12:01:25.006Z,17.10
2019-02-21T12:06:27.678Z,15.73
2019-02-21T12:11:30.360Z,15.80
2019-02-21T12:16:33.038Z,15.43
2019-02-21T12:21:35.730Z,13.77
2019-02-21T12:26:38.400Z,15.00
2019-02-21T12:31:41.085Z,14.20
2019-02-21T12:36:43.774Z,14.20
2019-02-21T12:41:46.443Z,14.40
2019-02-21T12:46:49.143Z,13.00
2019-02-21T12:51:51.842Z,12.60
2019-02-21T12:56:54.516Z,13.67
2019-02-21T13:01:57.222Z,12.27
2019-02-21T13:06:59.923Z,12.80
2019-02-21T13:12:02.725Z,12.37
2019-02-21T13:17:05.403Z,12.10
2019-02-21T13:22:08.083Z,12.93
2019-02-21T13:27:10.759Z,12.57
2019-02-21T13:32:13.434Z,12.77
2019-02-21T13:37:27.971Z,12.50
2019-02-21T13:42:20.693Z,14.00
2019-02-21T13:47:23.374Z,13.67
2019-02-21T13:52:26.067Z,11.77
2019-02-21T13:57:28.743Z,13.53
2019-02-21T14:02:31.413Z,13.67
2019-02-21T14:07:34.102Z,12.00
2019-02-21T14:12:36.761Z,13.13
2019-02-21T14:17:39.452Z,12.63
2019-02-21T14:22:42.146Z,12.17
2019-02-21T14:27:44.851Z,11.10
2019-02-21T14:32:47.553Z,13.33
2019-02-21T14:37:50.228Z,11.23
2019-02-21T14:42:52.930Z,11.40
2019-02-21T14:47:55.640Z,11.40
2019-02-21T14:52:58.319Z,12.33
2019-02-21T14:58:01.015Z,12.10
2019-02-21T15:03:03.740Z,14.17
2019-02-21T15:08:06.427Z,16.00
2019-02-21T15:13:09.110Z,16.17
2019-02-21T15:18:11.814Z,14.07
2019-02-21T15:23:14.491Z,16.10
2019-02-21T15:28:17.167Z,15.33
2019-02-21T15:33:19.860Z,16.03
2019-02-21T15:38:22.538Z,16.40
2019-02-21T15:43:25.248Z,14.50
2019-02-21T15:48:27.971Z,16.73
2019-02-21T15:53:30.674Z,15.30
2019-02-21T15:58:33.371Z,17.37
2019-02-21T16:03:36.062Z,16.30
2019-02-21T16:08:38.734Z,17.40
2019-02-21T16:13:41.546Z,17.27
2019-02-21T16:18:44.818Z,19.47
2019-02-21T16:23:47.541Z,17.50
2019-02-21T16:28:50.289Z,17.90
2019-02-21T16:33:52.979Z,18.57
2019-02-21T16:44:02.101Z,18.57
2019-02-21T16:54:21.571Z,18.70
2019-02-21T16:59:24.244Z,19.07
2019-02-21T17:04:26.942Z,18.90
2019-02-21T17:09:29.678Z,20.20
2019-02-21T17:14:32.467Z,20.33
2019-02-21T17:19:35.180Z,20.57
2019-02-21T17:24:37.892Z,19.87
2019-02-21T17:29:40.577Z,20.20
2019-02-21T17:34:43.295Z,20.40
2019-02-21T17:39:45.976Z,20.83
2019-02-21T17:44:48.670Z,19.90
2019-02-21T17:49:51.365Z,20.23
2019-02-21T17:54:54.060Z,20.37
2019-02-21T17:59:56.779Z,21.70
2019-02-21T18:04:59.485Z,23.10
2019-02-21T18:10:02.712Z,23.17
2019-02-21T18:15:05.942Z,24.17
2019-02-21T18:20:09.263Z,24.53
2019-02-21T18:25:17.107Z,26.70
2019-02-21T18:30:19.799Z,24.67
2019-02-21T18:35:22.505Z,24.07
2019-02-21T18:40:25.207Z,24.70
2019-02-21T18:45:27.889Z,26.47
2019-02-21T18:50:38.199Z,24.90
2019-02-21T18:55:35.346Z,26.50
2019-02-21T19:00:38.093Z,24.80
2019-02-21T19:05:40.806Z,25.70
2019-02-21T19:10:43.553Z,27.20
2019-02-21T19:15:46.332Z,26.80
2019-02-21T19:20:49.100Z,27.73
2019-02-21T19:25:51.851Z,28.90
2019-02-21T19:31:03.795Z,29.87
2019-02-21T19:36:06.483Z,28.47
2019-02-21T19:41:09.492Z,29.73
2019-02-21T19:46:12.213Z,27.53
2019-02-21T19:51:14.894Z,27.27
2019-02-21T19:56:17.579Z,27.50
2019-02-21T20:01:20.278Z,27.07
2019-02-21T20:06:22.980Z,29.33
2019-02-21T20:11:25.727Z,27.63
2019-02-21T20:16:28.484Z,26.53
2019-02-21T20:21:31.295Z,27.87
2019-02-21T20:26:34.022Z,27.73
2019-02-21T20:31:36.702Z,28.70
2019-02-21T20:36:50.451Z,27.10
2019-02-21T20:41:44.068Z,28.37
2019-02-21T20:46:46.842Z,28.87
2019-02-21T20:51:49.529Z,27.97
2019-02-21T20:56:52.262Z,28.97
2019-02-21T21:01:54.987Z,27.60
2019-02-21T21:06:57.685Z,28.70
2019-02-21T21:12:00.362Z,28.50
2019-02-21T21:17:03.048Z,29.77
2019-02-21T21:22:05.763Z,27.10
2019-02-21T21:27:08.526Z,28.20
2019-02-21T21:32:11.220Z,26.87
2019-02-21T21:37:13.918Z,24.60
2019-02-21T21:42:16.612Z,21.60
2019-02-21T21:47:19.321Z,23.50
2019-02-21T21:52:22.028Z,23.67
2019-02-21T21:57:24.709Z,22.80
2019-02-21T22:02:27.407Z,22.53
2019-02-21T22:07:30.080Z,23.40
2019-02-21T22:12:32.768Z,22.03
2019-02-21T22:17:35.463Z,21.67
2019-02-21T22:22:38.152Z,21.80
2019-02-21T22:27:40.832Z,21.40
2019-02-21T22:32:43.581Z,19.90
2019-02-21T22:37:46.350Z,20.27
2019-02-21T22:42:49.048Z,20.40
2019-02-21T22:47:51.726Z,20.83
2019-02-21T22:52:54.399Z,20.10
2019-02-21T22:57:57.079Z,18.70
2019-02-21T23:03:00.563Z,21.00
2019-02-21T23:09:04.972Z,20.33
2019-02-21T23:14:07.650Z,21.13
2019-02-21T23:19:10.437Z,19.90
2019-02-21T23:24:13.151Z,17.43
2019-02-21T23:29:15.824Z,18.37
2019-02-21T23:34:32.577Z,19.23
2019-02-21T23:39:38.427Z,18.20
2019-02-21T23:44:39.853Z,19.30
2019-02-21T23:49:42.530Z,18.70
2019-02-21T23:54:45.213Z,18.03
2019-02-21T23:59:47.889Z,17.13
